sensor_id;sensor_type;location;lat;lon;timestamp;temperature;humidity
65568;DHT22;52211;50.154;8.682;2023-04-03T00:01:34;7.90;64.20
65568;DHT22;52211;50.154;8.682;2023-04-03T00:04:01;7.90;64.20
65568;DHT22;52211;50.154;8.682;2023-04-03T00:06:28;7.90;64.30
65568;DHT22;52211;50.154;8.682;2023-04-03T00:09:00;7.90;64.30
65568;DHT22;52211;50.154;8.682;2023-04-03T00:11:29;7.90;64.40
65568;DHT22;52211;50.154;8.682;2023-04-03T00:13:57;8.00;64.30
65568;DHT22;52211;50.154;8.682;2023-04-03T00:16:26;7.90;64.30
65568;DHT22;52211;50.154;8.682;2023-04-03T00:18:53;8.00;64.30
65568;DHT22;52211;50.154;8.682;2023-04-03T00:21:22;7.90;64.20
65568;DHT22;52211;50.154;8.682;2023-04-03T00:23:49;8.00;64.20
65568;DHT22;52211;50.154;8.682;2023-04-03T00:26:18;8.00;64.30
65568;DHT22;52211;50.154;8.682;2023-04-03T00:28:50;8.00;64.20
65568;DHT22;52211;50.154;8.682;2023-04-03T00:31:21;8.10;64.30
65568;DHT22;52211;50.154;8.682;2023-04-03T00:33:51;8.00;64.10
65568;DHT22;52211;50.154;8.682;2023-04-03T00:36:20;8.10;64.10
65568;DHT22;52211;50.154;8.682;2023-04-03T00:38:50;8.10;64.10
65568;DHT22;52211;50.154;8.682;2023-04-03T00:41:19;8.10;64.10
65568;DHT22;52211;50.154;8.682;2023-04-03T00:43:53;8.00;63.90
65568;DHT22;52211;50.154;8.682;2023-04-03T00:46:23;8.10;64.00
65568;DHT22;52211;50.154;8.682;2023-04-03T00:48:52;8.10;64.00
65568;DHT22;52211;50.154;8.682;2023-04-03T00:51:26;8.10;64.00
65568;DHT22;52211;50.154;8.682;2023-04-03T00:54:01;8.10;63.90
65568;DHT22;52211;50.154;8.682;2023-04-03T00:56:35;8.10;64.00
65568;DHT22;52211;50.154;8.682;2023-04-03T00:59:08;8.10;64.00
65568;DHT22;52211;50.154;8.682;2023-04-03T01:01:50;8.10;64.00
65568;DHT22;52211;50.154;8.682;2023-04-03T01:04:39;8.10;64.00
65568;DHT22;52211;50.154;8.682;2023-04-03T01:07:35;8.10;64.00
65568;DHT22;52211;50.154;8.682;2023-04-03T01:10:07;8.10;63.60
65568;DHT22;52211;50.154;8.682;2023-04-03T01:12:41;8.10;64.00
65568;DHT22;52211;50.154;8.682;2023-04-03T01:15:16;8.10;64.00
65568;DHT22;52211;50.154;8.682;2023-04-03T01:17:57;8.10;63.90
65568;DHT22;52211;50.154;8.682;2023-04-03T01:28:34;8.20;63.80
65568;DHT22;52211;50.154;8.682;2023-04-03T01:31:27;8.20;63.80
65568;DHT22;52211;50.154;8.682;2023-04-03T01:34:03;8.10;63.80
65568;DHT22;52211;50.154;8.682;2023-04-03T01:36:32;8.10;64.00
65568;DHT22;52211;50.154;8.682;2023-04-03T01:39:01;8.20;64.00
65568;DHT22;52211;50.154;8.682;2023-04-03T01:41:31;8.20;64.00
65568;DHT22;52211;50.154;8.682;2023-04-03T01:44:07;8.20;63.90
65568;DHT22;52211;50.154;8.682;2023-04-03T01:46:39;8.20;64.00
65568;DHT22;52211;50.154;8.682;2023-04-03T01:49:06;8.10;63.90
65568;DHT22;52211;50.154;8.682;2023-04-03T01:51:32;8.10;63.90
65568;DHT22;52211;50.154;8.682;2023-04-03T01:54:02;8.20;64.00
65568;DHT22;52211;50.154;8.682;2023-04-03T01:56:31;8.20;64.00
65568;DHT22;52211;50.154;8.682;2023-04-03T01:59:03;8.20;64.00
65568;DHT22;52211;50.154;8.682;2023-04-03T02:01:32;8.20;64.00
65568;DHT22;52211;50.154;8.682;2023-04-03T02:04:00;8.20;64.00
65568;DHT22;52211;50.154;8.682;2023-04-03T02:06:27;8.10;64.00
65568;DHT22;52211;50.154;8.682;2023-04-03T02:08:56;8.10;64.00
65568;DHT22;52211;50.154;8.682;2023-04-03T02:11:23;8.10;64.00
65568;DHT22;52211;50.154;8.682;2023-04-03T02:13:55;8.10;64.00
65568;DHT22;52211;50.154;8.682;2023-04-03T02:16:25;8.10;64.00
65568;DHT22;52211;50.154;8.682;2023-04-03T02:19:00;8.10;64.00
65568;DHT22;52211;50.154;8.682;2023-04-03T02:21:33;8.10;64.00
65568;DHT22;52211;50.154;8.682;2023-04-03T02:24:02;8.10;64.00
65568;DHT22;52211;50.154;8.682;2023-04-03T02:26:29;8.10;64.00
65568;DHT22;52211;50.154;8.682;2023-04-03T02:28:58;8.10;64.00
65568;DHT22;52211;50.154;8.682;2023-04-03T02:31:25;8.10;64.00
65568;DHT22;52211;50.154;8.682;2023-04-03T02:33:53;8.10;64.00
65568;DHT22;52211;50.154;8.682;2023-04-03T02:36:26;8.10;64.00
65568;DHT22;52211;50.154;8.682;2023-04-03T02:38:57;8.10;64.00
65568;DHT22;52211;50.154;8.682;2023-04-03T02:41:29;8.10;64.00
65568;DHT22;52211;50.154;8.682;2023-04-03T02:44:06;8.10;64.00
65568;DHT22;52211;50.154;8.682;2023-04-03T02:46:35;8.10;64.00
65568;DHT22;52211;50.154;8.682;2023-04-03T02:49:03;8.10;64.00
65568;DHT22;52211;50.154;8.682;2023-04-03T02:51:33;8.10;64.00
65568;DHT22;52211;50.154;8.682;2023-04-03T02:54:00;8.10;64.00
65568;DHT22;52211;50.154;8.682;2023-04-03T02:56:32;8.10;64.00
65568;DHT22;52211;50.154;8.682;2023-04-03T02:59:00;8.10;64.00
65568;DHT22;52211;50.154;8.682;2023-04-03T03:01:30;8.10;64.00
65568;DHT22;52211;50.154;8.682;2023-04-03T03:03:59;8.10;64.00
65568;DHT22;52211;50.154;8.682;2023-04-03T03:06:29;8.00;63.90
65568;DHT22;52211;50.154;8.682;2023-04-03T03:08:56;8.00;63.90
65568;DHT22;52211;50.154;8.682;2023-04-03T03:11:27;8.00;63.90
65568;DHT22;52211;50.154;8.682;2023-04-03T03:13:54;8.10;64.50
65568;DHT22;52211;50.154;8.682;2023-04-03T03:16:27;8.00;63.90
65568;DHT22;52211;50.154;8.682;2023-04-03T03:18:58;8.00;63.90
65568;DHT22;52211;50.154;8.682;2023-04-03T03:21:26;8.00;63.90
65568;DHT22;52211;50.154;8.682;2023-04-03T03:23:58;8.00;63.90
65568;DHT22;52211;50.154;8.682;2023-04-03T03:26:26;7.90;63.90
65568;DHT22;52211;50.154;8.682;2023-04-03T03:28:59;7.90;63.90
65568;DHT22;52211;50.154;8.682;2023-04-03T03:31:29;7.90;63.90
65568;DHT22;52211;50.154;8.682;2023-04-03T03:33:56;7.90;63.80
65568;DHT22;52211;50.154;8.682;2023-04-03T03:36:25;7.90;63.90
65568;DHT22;52211;50.154;8.682;2023-04-03T03:38:57;7.80;63.80
65568;DHT22;52211;50.154;8.682;2023-04-03T03:41:24;7.80;63.70
65568;DHT22;52211;50.154;8.682;2023-04-03T03:43:53;7.80;63.70
65568;DHT22;52211;50.154;8.682;2023-04-03T03:46:21;7.80;63.60
65568;DHT22;52211;50.154;8.682;2023-04-03T03:48:48;7.80;63.60
65568;DHT22;52211;50.154;8.682;2023-04-03T03:51:17;7.70;63.50
65568;DHT22;52211;50.154;8.682;2023-04-03T03:53:50;7.70;63.30
65568;DHT22;52211;50.154;8.682;2023-04-03T03:56:23;7.60;63.40
65568;DHT22;52211;50.154;8.682;2023-04-03T03:58:55;7.60;63.40
65568;DHT22;52211;50.154;8.682;2023-04-03T04:01:23;7.50;63.40
65568;DHT22;52211;50.154;8.682;2023-04-03T04:03:55;7.60;63.50
65568;DHT22;52211;50.154;8.682;2023-04-03T04:06:31;7.50;63.30
65568;DHT22;52211;50.154;8.682;2023-04-03T04:09:08;7.50;63.20
65568;DHT22;52211;50.154;8.682;2023-04-03T04:11:40;7.50;63.20
65568;DHT22;52211;50.154;8.682;2023-04-03T04:14:11;7.50;63.30
65568;DHT22;52211;50.154;8.682;2023-04-03T04:16:43;7.40;63.20
65568;DHT22;52211;50.154;8.682;2023-04-03T04:19:17;7.40;63.20
65568;DHT22;52211;50.154;8.682;2023-04-03T04:21:46;7.30;63.20
65568;DHT22;52211;50.154;8.682;2023-04-03T04:24:14;7.30;63.20
65568;DHT22;52211;50.154;8.682;2023-04-03T04:26:43;7.30;63.20
65568;DHT22;52211;50.154;8.682;2023-04-03T04:29:15;7.20;63.10
65568;DHT22;52211;50.154;8.682;2023-04-03T04:31:50;7.20;63.10
65568;DHT22;52211;50.154;8.682;2023-04-03T04:34:17;7.10;63.10
65568;DHT22;52211;50.154;8.682;2023-04-03T04:36:49;7.10;63.10
65568;DHT22;52211;50.154;8.682;2023-04-03T04:39:21;7.10;63.10
65568;DHT22;52211;50.154;8.682;2023-04-03T04:41:48;7.00;63.00
65568;DHT22;52211;50.154;8.682;2023-04-03T04:44:20;7.00;63.10
65568;DHT22;52211;50.154;8.682;2023-04-03T04:46:51;7.00;63.10
65568;DHT22;52211;50.154;8.682;2023-04-03T04:49:21;6.90;63.10
65568;DHT22;52211;50.154;8.682;2023-04-03T04:51:57;6.90;63.20
65568;DHT22;52211;50.154;8.682;2023-04-03T04:54:28;6.90;63.20
65568;DHT22;52211;50.154;8.682;2023-04-03T04:56:58;6.80;63.10
65568;DHT22;52211;50.154;8.682;2023-04-03T04:59:28;6.80;63.10
65568;DHT22;52211;50.154;8.682;2023-04-03T05:01:57;6.80;63.10
65568;DHT22;52211;50.154;8.682;2023-04-03T05:04:27;6.80;63.20
65568;DHT22;52211;50.154;8.682;2023-04-03T05:07:03;6.70;63.20
65568;DHT22;52211;50.154;8.682;2023-04-03T05:09:33;6.70;63.10
65568;DHT22;52211;50.154;8.682;2023-04-03T05:12:00;6.70;63.20
65568;DHT22;52211;50.154;8.682;2023-04-03T05:14:36;6.70;63.20
65568;DHT22;52211;50.154;8.682;2023-04-03T05:17:06;6.70;63.20
65568;DHT22;52211;50.154;8.682;2023-04-03T05:19:35;6.60;63.20
65568;DHT22;52211;50.154;8.682;2023-04-03T05:22:06;6.60;63.20
65568;DHT22;52211;50.154;8.682;2023-04-03T05:24:34;6.60;63.20
65568;DHT22;52211;50.154;8.682;2023-04-03T05:27:06;6.60;63.20
65568;DHT22;52211;50.154;8.682;2023-04-03T05:29:39;6.50;63.10
65568;DHT22;52211;50.154;8.682;2023-04-03T05:32:18;6.50;63.20
65568;DHT22;52211;50.154;8.682;2023-04-03T05:34:53;6.50;63.20
65568;DHT22;52211;50.154;8.682;2023-04-03T05:37:23;6.50;63.20
65568;DHT22;52211;50.154;8.682;2023-04-03T05:39:52;6.50;63.10
65568;DHT22;52211;50.154;8.682;2023-04-03T05:42:24;6.50;63.20
65568;DHT22;52211;50.154;8.682;2023-04-03T05:44:51;6.40;63.10
65568;DHT22;52211;50.154;8.682;2023-04-03T05:47:22;6.40;63.10
65568;DHT22;52211;50.154;8.682;2023-04-03T05:49:49;6.40;63.20
65568;DHT22;52211;50.154;8.682;2023-04-03T05:52:30;6.30;63.20
65568;DHT22;52211;50.154;8.682;2023-04-03T05:55:07;6.40;63.10
65568;DHT22;52211;50.154;8.682;2023-04-03T05:57:41;6.30;63.30
65568;DHT22;52211;50.154;8.682;2023-04-03T06:00:12;6.30;63.30
65568;DHT22;52211;50.154;8.682;2023-04-03T06:02:47;6.30;63.30
65568;DHT22;52211;50.154;8.682;2023-04-03T06:05:20;6.30;63.30
65568;DHT22;52211;50.154;8.682;2023-04-03T06:07:54;6.30;63.30
65568;DHT22;52211;50.154;8.682;2023-04-03T06:10:23;6.20;63.30
65568;DHT22;52211;50.154;8.682;2023-04-03T06:12:53;6.20;63.30
65568;DHT22;52211;50.154;8.682;2023-04-03T06:15:22;6.20;63.30
65568;DHT22;52211;50.154;8.682;2023-04-03T06:17:52;6.20;63.30
65568;DHT22;52211;50.154;8.682;2023-04-03T06:20:21;6.10;63.30
65568;DHT22;52211;50.154;8.682;2023-04-03T06:22:54;6.10;63.30
65568;DHT22;52211;50.154;8.682;2023-04-03T06:25:24;6.10;63.30
65568;DHT22;52211;50.154;8.682;2023-04-03T06:27:51;6.00;63.20
65568;DHT22;52211;50.154;8.682;2023-04-03T06:30:24;6.10;63.30
65568;DHT22;52211;50.154;8.682;2023-04-03T06:32:56;6.00;63.30
65568;DHT22;52211;50.154;8.682;2023-04-03T06:35:23;6.00;63.30
65568;DHT22;52211;50.154;8.682;2023-04-03T06:37:54;6.00;63.30
65568;DHT22;52211;50.154;8.682;2023-04-03T06:40:24;6.00;63.40
65568;DHT22;52211;50.154;8.682;2023-04-03T06:42:54;6.00;63.40
65568;DHT22;52211;50.154;8.682;2023-04-03T06:45:21;6.00;63.50
65568;DHT22;52211;50.154;8.682;2023-04-03T06:47:48;6.00;63.50
65568;DHT22;52211;50.154;8.682;2023-04-03T06:50:15;6.00;63.40
65568;DHT22;52211;50.154;8.682;2023-04-03T06:52:45;6.00;63.40
65568;DHT22;52211;50.154;8.682;2023-04-03T06:55:14;6.00;63.40
65568;DHT22;52211;50.154;8.682;2023-04-03T06:57:46;6.00;63.50
65568;DHT22;52211;50.154;8.682;2023-04-03T07:00:16;6.00;63.40
65568;DHT22;52211;50.154;8.682;2023-04-03T07:02:43;6.10;63.50
65568;DHT22;52211;50.154;8.682;2023-04-03T07:05:10;6.10;63.50
65568;DHT22;52211;50.154;8.682;2023-04-03T07:07:40;6.10;63.60
65568;DHT22;52211;50.154;8.682;2023-04-03T07:10:10;6.10;63.50
65568;DHT22;52211;50.154;8.682;2023-04-03T07:12:37;6.10;63.50
65568;DHT22;52211;50.154;8.682;2023-04-03T07:15:10;6.10;63.40
65568;DHT22;52211;50.154;8.682;2023-04-03T07:17:42;6.20;63.50
65568;DHT22;52211;50.154;8.682;2023-04-03T07:20:13;6.20;63.50
65568;DHT22;52211;50.154;8.682;2023-04-03T07:22:41;6.20;63.40
65568;DHT22;52211;50.154;8.682;2023-04-03T07:25:10;6.20;63.30
65568;DHT22;52211;50.154;8.682;2023-04-03T07:27:39;6.20;63.30
65568;DHT22;52211;50.154;8.682;2023-04-03T07:30:09;6.20;63.30
65568;DHT22;52211;50.154;8.682;2023-04-03T07:32:36;6.30;63.40
65568;DHT22;52211;50.154;8.682;2023-04-03T07:35:05;6.30;63.40
65568;DHT22;52211;50.154;8.682;2023-04-03T07:37:35;6.30;63.50
65568;DHT22;52211;50.154;8.682;2023-04-03T07:40:02;6.30;63.40
65568;DHT22;52211;50.154;8.682;2023-04-03T07:42:35;6.40;63.50
65568;DHT22;52211;50.154;8.682;2023-04-03T07:45:04;6.40;63.40
65568;DHT22;52211;50.154;8.682;2023-04-03T07:47:34;6.50;63.40
65568;DHT22;52211;50.154;8.682;2023-04-03T07:50:07;6.50;63.40
65568;DHT22;52211;50.154;8.682;2023-04-03T07:52:37;6.50;63.40
65568;DHT22;52211;50.154;8.682;2023-04-03T07:55:04;6.50;63.30
65568;DHT22;52211;50.154;8.682;2023-04-03T07:57:33;6.60;63.40
65568;DHT22;52211;50.154;8.682;2023-04-03T08:00:03;6.70;63.40
65568;DHT22;52211;50.154;8.682;2023-04-03T08:02:44;6.70;63.20
65568;DHT22;52211;50.154;8.682;2023-04-03T08:05:18;6.80;63.20
65568;DHT22;52211;50.154;8.682;2023-04-03T08:07:50;6.80;63.20
65568;DHT22;52211;50.154;8.682;2023-04-03T08:10:16;6.80;63.10
65568;DHT22;52211;50.154;8.682;2023-04-03T08:12:48;6.90;63.10
65568;DHT22;52211;50.154;8.682;2023-04-03T08:15:17;6.90;63.10
65568;DHT22;52211;50.154;8.682;2023-04-03T08:17:44;7.00;63.20
65568;DHT22;52211;50.154;8.682;2023-04-03T08:20:12;7.10;63.10
65568;DHT22;52211;50.154;8.682;2023-04-03T08:22:39;7.10;63.10
65568;DHT22;52211;50.154;8.682;2023-04-03T08:25:09;7.20;63.10
65568;DHT22;52211;50.154;8.682;2023-04-03T08:27:36;7.30;63.10
65568;DHT22;52211;50.154;8.682;2023-04-03T08:30:04;7.40;63.00
65568;DHT22;52211;50.154;8.682;2023-04-03T08:32:33;7.40;62.80
65568;DHT22;52211;50.154;8.682;2023-04-03T08:35:02;7.50;62.70
65568;DHT22;52211;50.154;8.682;2023-04-03T08:37:35;7.50;62.70
65568;DHT22;52211;50.154;8.682;2023-04-03T08:40:05;7.70;62.60
65568;DHT22;52211;50.154;8.682;2023-04-03T08:43:21;7.70;62.70
65568;DHT22;52211;50.154;8.682;2023-04-03T08:45:45;7.80;62.50
65568;DHT22;52211;50.154;8.682;2023-04-03T08:48:22;7.90;62.50
65568;DHT22;52211;50.154;8.682;2023-04-03T08:51:03;8.00;62.60
65568;DHT22;52211;50.154;8.682;2023-04-03T08:53:42;8.10;62.40
65568;DHT22;52211;50.154;8.682;2023-04-03T08:56:14;8.20;62.40
65568;DHT22;52211;50.154;8.682;2023-04-03T08:58:56;8.30;62.30
65568;DHT22;52211;50.154;8.682;2023-04-03T09:01:40;8.30;61.80
65568;DHT22;52211;50.154;8.682;2023-04-03T09:04:16;8.40;61.60
65568;DHT22;52211;50.154;8.682;2023-04-03T09:06:50;8.40;61.70
65568;DHT22;52211;50.154;8.682;2023-04-03T09:09:36;8.50;61.40
65568;DHT22;52211;50.154;8.682;2023-04-03T09:15:23;8.50;61.00
65568;DHT22;52211;50.154;8.682;2023-04-03T09:18:15;8.50;60.60
65568;DHT22;52211;50.154;8.682;2023-04-03T09:21:22;8.50;60.90
65568;DHT22;52211;50.154;8.682;2023-04-03T09:23:56;8.50;60.30
65568;DHT22;52211;50.154;8.682;2023-04-03T09:26:30;8.60;61.00
65568;DHT22;52211;50.154;8.682;2023-04-03T09:29:07;8.60;61.00
65568;DHT22;52211;50.154;8.682;2023-04-03T09:31:44;8.60;60.80
65568;DHT22;52211;50.154;8.682;2023-04-03T09:34:30;8.70;60.70
65568;DHT22;52211;50.154;8.682;2023-04-03T09:37:03;8.70;60.30
65568;DHT22;52211;50.154;8.682;2023-04-03T09:39:49;8.80;60.60
65568;DHT22;52211;50.154;8.682;2023-04-03T09:42:26;8.80;60.20
65568;DHT22;52211;50.154;8.682;2023-04-03T09:45:00;8.90;60.40
65568;DHT22;52211;50.154;8.682;2023-04-03T09:47:32;8.90;60.50
65568;DHT22;52211;50.154;8.682;2023-04-03T09:52:47;9.00;60.00
65568;DHT22;52211;50.154;8.682;2023-04-03T09:55:23;9.10;60.20
65568;DHT22;52211;50.154;8.682;2023-04-03T09:58:02;9.20;60.30
65568;DHT22;52211;50.154;8.682;2023-04-03T10:00:31;9.30;60.50
65568;DHT22;52211;50.154;8.682;2023-04-03T10:03:09;9.40;61.10
65568;DHT22;52211;50.154;8.682;2023-04-03T10:05:51;9.50;60.30
65568;DHT22;52211;50.154;8.682;2023-04-03T10:08:24;9.60;61.00
65568;DHT22;52211;50.154;8.682;2023-04-03T10:11:16;9.70;60.20
65568;DHT22;52211;50.154;8.682;2023-04-03T10:13:59;9.70;59.60
65568;DHT22;52211;50.154;8.682;2023-04-03T10:19:39;9.80;59.40
65568;DHT22;52211;50.154;8.682;2023-04-03T10:22:21;9.90;58.90
65568;DHT22;52211;50.154;8.682;2023-04-03T10:25:29;10.00;59.50
65568;DHT22;52211;50.154;8.682;2023-04-03T10:31:09;10.20;59.20
65568;DHT22;52211;50.154;8.682;2023-04-03T10:40:39;10.50;58.40
65568;DHT22;52211;50.154;8.682;2023-04-03T10:46:28;10.90;59.10
65568;DHT22;52211;50.154;8.682;2023-04-03T10:52:46;11.50;58.40
65568;DHT22;52211;50.154;8.682;2023-04-03T10:57:57;12.10;58.60
65568;DHT22;52211;50.154;8.682;2023-04-03T11:00:48;12.30;58.30
65568;DHT22;52211;50.154;8.682;2023-04-03T11:03:34;12.50;57.40
65568;DHT22;52211;50.154;8.682;2023-04-03T11:06:10;12.70;57.90
65568;DHT22;52211;50.154;8.682;2023-04-03T11:11:30;13.10;57.50
65568;DHT22;52211;50.154;8.682;2023-04-03T11:17:11;13.70;57.20
65568;DHT22;52211;50.154;8.682;2023-04-03T11:22:57;14.30;55.80
65568;DHT22;52211;50.154;8.682;2023-04-03T11:25:35;14.50;55.70
65568;DHT22;52211;50.154;8.682;2023-04-03T11:28:06;14.80;56.00
65568;DHT22;52211;50.154;8.682;2023-04-03T11:33:48;15.20;53.90
65568;DHT22;52211;50.154;8.682;2023-04-03T11:36:30;15.50;53.80
65568;DHT22;52211;50.154;8.682;2023-04-03T11:39:38;15.70;54.70
65568;DHT22;52211;50.154;8.682;2023-04-03T11:42:34;15.90;52.60
65568;DHT22;52211;50.154;8.682;2023-04-03T11:47:54;16.20;53.70
65568;DHT22;52211;50.154;8.682;2023-04-03T11:53:03;16.70;52.60
65568;DHT22;52211;50.154;8.682;2023-04-03T11:55:52;17.00;53.50
65568;DHT22;52211;50.154;8.682;2023-04-03T11:58:31;17.20;53.30
65568;DHT22;52211;50.154;8.682;2023-04-03T12:01:08;17.40;51.70
65568;DHT22;52211;50.154;8.682;2023-04-03T12:08:50;17.80;51.20
65568;DHT22;52211;50.154;8.682;2023-04-03T12:11:32;17.90;50.70
65568;DHT22;52211;50.154;8.682;2023-04-03T12:14:15;18.10;50.80
65568;DHT22;52211;50.154;8.682;2023-04-03T12:16:46;18.20;50.10
65568;DHT22;52211;50.154;8.682;2023-04-03T12:19:41;18.50;50.70
65568;DHT22;52211;50.154;8.682;2023-04-03T12:22:13;18.50;48.20
65568;DHT22;52211;50.154;8.682;2023-04-03T12:24:49;18.70;49.70
65568;DHT22;52211;50.154;8.682;2023-04-03T12:27:28;18.70;49.30
65568;DHT22;52211;50.154;8.682;2023-04-03T12:32:51;19.00;49.20
65568;DHT22;52211;50.154;8.682;2023-04-03T12:41:50;19.20;47.90
65568;DHT22;52211;50.154;8.682;2023-04-03T12:44:32;19.30;48.80
65568;DHT22;52211;50.154;8.682;2023-04-03T12:47:23;19.50;48.30
65568;DHT22;52211;50.154;8.682;2023-04-03T12:49:55;19.40;47.60
65568;DHT22;52211;50.154;8.682;2023-04-03T12:52:46;19.50;47.70
65568;DHT22;52211;50.154;8.682;2023-04-03T12:55:19;19.50;44.90
65568;DHT22;52211;50.154;8.682;2023-04-03T12:57:47;19.50;47.70
65568;DHT22;52211;50.154;8.682;2023-04-03T13:00:32;19.60;46.60
65568;DHT22;52211;50.154;8.682;2023-04-03T13:03:03;19.50;46.30
65568;DHT22;52211;50.154;8.682;2023-04-03T13:05:36;19.60;46.80
65568;DHT22;52211;50.154;8.682;2023-04-03T13:08:10;19.70;46.60
65568;DHT22;52211;50.154;8.682;2023-04-03T13:11:05;19.70;45.10
65568;DHT22;52211;50.154;8.682;2023-04-03T13:13:37;19.70;45.60
65568;DHT22;52211;50.154;8.682;2023-04-03T13:16:09;19.70;45.60
65568;DHT22;52211;50.154;8.682;2023-04-03T13:18:38;19.60;45.00
65568;DHT22;52211;50.154;8.682;2023-04-03T13:21:29;19.60;45.30
65568;DHT22;52211;50.154;8.682;2023-04-03T13:24:01;19.60;44.30
65568;DHT22;52211;50.154;8.682;2023-04-03T13:26:41;19.50;44.90
65568;DHT22;52211;50.154;8.682;2023-04-03T13:29:41;19.40;44.80
65568;DHT22;52211;50.154;8.682;2023-04-03T13:32:21;19.40;43.60
65568;DHT22;52211;50.154;8.682;2023-04-03T13:34:52;19.40;43.20
65568;DHT22;52211;50.154;8.682;2023-04-03T13:37:29;19.50;45.00
65568;DHT22;52211;50.154;8.682;2023-04-03T13:40:17;19.50;44.50
65568;DHT22;52211;50.154;8.682;2023-04-03T13:42:57;19.50;44.30
65568;DHT22;52211;50.154;8.682;2023-04-03T13:45:32;19.60;44.40
65568;DHT22;52211;50.154;8.682;2023-04-03T13:48:18;19.60;43.40
65568;DHT22;52211;50.154;8.682;2023-04-03T13:51:02;19.60;43.80
65568;DHT22;52211;50.154;8.682;2023-04-03T13:53:33;19.70;43.30
65568;DHT22;52211;50.154;8.682;2023-04-03T13:56:38;19.70;43.50
65568;DHT22;52211;50.154;8.682;2023-04-03T14:07:17;19.80;41.70
65568;DHT22;52211;50.154;8.682;2023-04-03T14:09:46;19.80;42.60
65568;DHT22;52211;50.154;8.682;2023-04-03T14:12:34;19.90;42.70
65568;DHT22;52211;50.154;8.682;2023-04-03T14:15:20;19.90;41.40
65568;DHT22;52211;50.154;8.682;2023-04-03T14:17:55;19.90;41.10
65568;DHT22;52211;50.154;8.682;2023-04-03T14:20:28;20.00;42.30
65568;DHT22;52211;50.154;8.682;2023-04-03T14:22:57;20.10;42.10
65568;DHT22;52211;50.154;8.682;2023-04-03T14:25:30;20.20;42.10
65568;DHT22;52211;50.154;8.682;2023-04-03T14:28:06;20.20;41.40
65568;DHT22;52211;50.154;8.682;2023-04-03T14:30:42;20.20;41.30
65568;DHT22;52211;50.154;8.682;2023-04-03T14:33:18;20.30;41.20
65568;DHT22;52211;50.154;8.682;2023-04-03T14:35:48;20.20;40.50
65568;DHT22;52211;50.154;8.682;2023-04-03T14:38:25;20.20;40.70
65568;DHT22;52211;50.154;8.682;2023-04-03T14:40:57;20.20;40.40
65568;DHT22;52211;50.154;8.682;2023-04-03T14:43:41;20.10;40.80
65568;DHT22;52211;50.154;8.682;2023-04-03T14:46:28;20.10;40.60
65568;DHT22;52211;50.154;8.682;2023-04-03T14:49:21;19.90;39.00
65568;DHT22;52211;50.154;8.682;2023-04-03T14:51:55;19.80;40.20
65568;DHT22;52211;50.154;8.682;2023-04-03T14:54:26;19.80;40.20
65568;DHT22;52211;50.154;8.682;2023-04-03T14:56:59;19.60;40.30
65568;DHT22;52211;50.154;8.682;2023-04-03T14:59:34;19.50;40.00
65568;DHT22;52211;50.154;8.682;2023-04-03T15:04:51;19.20;39.20
65568;DHT22;52211;50.154;8.682;2023-04-03T15:07:22;19.10;39.70
65568;DHT22;52211;50.154;8.682;2023-04-03T15:09:50;19.00;39.60
65568;DHT22;52211;50.154;8.682;2023-04-03T15:12:23;18.70;39.70
65568;DHT22;52211;50.154;8.682;2023-04-03T15:14:51;18.70;39.30
65568;DHT22;52211;50.154;8.682;2023-04-03T15:17:32;18.50;39.30
65568;DHT22;52211;50.154;8.682;2023-04-03T15:20:18;18.30;38.90
65568;DHT22;52211;50.154;8.682;2023-04-03T15:22:48;18.00;38.20
65568;DHT22;52211;50.154;8.682;2023-04-03T15:25:15;17.90;39.40
65568;DHT22;52211;50.154;8.682;2023-04-03T15:27:48;17.70;39.50
65568;DHT22;52211;50.154;8.682;2023-04-03T15:30:20;17.60;39.60
65568;DHT22;52211;50.154;8.682;2023-04-03T15:32:48;17.40;39.50
65568;DHT22;52211;50.154;8.682;2023-04-03T15:35:16;17.30;39.50
65568;DHT22;52211;50.154;8.682;2023-04-03T15:37:43;17.10;39.30
65568;DHT22;52211;50.154;8.682;2023-04-03T15:40:10;17.00;39.20
65568;DHT22;52211;50.154;8.682;2023-04-03T15:42:40;16.80;39.20
65568;DHT22;52211;50.154;8.682;2023-04-03T15:45:07;16.60;39.00
65568;DHT22;52211;50.154;8.682;2023-04-03T15:47:40;16.50;39.30
65568;DHT22;52211;50.154;8.682;2023-04-03T15:50:08;16.30;39.40
65568;DHT22;52211;50.154;8.682;2023-04-03T15:52:40;16.20;39.50
65568;DHT22;52211;50.154;8.682;2023-04-03T15:55:07;16.00;39.20
65568;DHT22;52211;50.154;8.682;2023-04-03T15:57:34;15.90;39.20
65568;DHT22;52211;50.154;8.682;2023-04-03T16:00:12;15.70;39.10
65568;DHT22;52211;50.154;8.682;2023-04-03T16:02:44;15.50;39.10
65568;DHT22;52211;50.154;8.682;2023-04-03T16:05:13;15.30;39.10
65568;DHT22;52211;50.154;8.682;2023-04-03T16:07:42;15.20;39.20
65568;DHT22;52211;50.154;8.682;2023-04-03T16:10:11;15.00;39.20
65568;DHT22;52211;50.154;8.682;2023-04-03T16:12:42;14.90;39.30
65568;DHT22;52211;50.154;8.682;2023-04-03T16:15:12;14.80;39.40
65568;DHT22;52211;50.154;8.682;2023-04-03T16:17:41;14.70;39.40
65568;DHT22;52211;50.154;8.682;2023-04-03T16:20:10;14.60;39.30
65568;DHT22;52211;50.154;8.682;2023-04-03T16:22:46;14.50;39.30
65568;DHT22;52211;50.154;8.682;2023-04-03T16:25:18;14.40;39.00
65568;DHT22;52211;50.154;8.682;2023-04-03T16:27:47;14.20;39.30
65568;DHT22;52211;50.154;8.682;2023-04-03T16:30:16;14.20;39.40
65568;DHT22;52211;50.154;8.682;2023-04-03T16:32:43;14.00;39.20
65568;DHT22;52211;50.154;8.682;2023-04-03T16:35:12;13.90;39.30
65568;DHT22;52211;50.154;8.682;2023-04-03T16:37:39;13.80;39.60
65568;DHT22;52211;50.154;8.682;2023-04-03T16:40:08;13.70;39.60
65568;DHT22;52211;50.154;8.682;2023-04-03T16:42:37;13.70;39.60
65568;DHT22;52211;50.154;8.682;2023-04-03T16:45:07;13.50;39.40
65568;DHT22;52211;50.154;8.682;2023-04-03T16:47:37;13.40;39.40
65568;DHT22;52211;50.154;8.682;2023-04-03T16:50:07;13.30;39.50
65568;DHT22;52211;50.154;8.682;2023-04-03T16:52:34;13.20;39.60
65568;DHT22;52211;50.154;8.682;2023-04-03T16:55:04;13.10;39.60
65568;DHT22;52211;50.154;8.682;2023-04-03T16:57:33;13.00;39.60
65568;DHT22;52211;50.154;8.682;2023-04-03T17:00:00;12.90;39.60
65568;DHT22;52211;50.154;8.682;2023-04-03T17:02:32;12.80;39.60
65568;DHT22;52211;50.154;8.682;2023-04-03T17:04:59;12.70;39.80
65568;DHT22;52211;50.154;8.682;2023-04-03T17:07:29;12.70;39.70
65568;DHT22;52211;50.154;8.682;2023-04-03T17:09:56;12.50;39.80
65568;DHT22;52211;50.154;8.682;2023-04-03T17:12:25;12.30;39.70
65568;DHT22;52211;50.154;8.682;2023-04-03T17:14:52;12.20;39.80
65568;DHT22;52211;50.154;8.682;2023-04-03T17:17:23;12.10;39.90
65568;DHT22;52211;50.154;8.682;2023-04-03T17:19:54;12.00;39.70
65568;DHT22;52211;50.154;8.682;2023-04-03T17:22:22;11.90;40.00
65568;DHT22;52211;50.154;8.682;2023-04-03T17:24:51;11.70;39.80
65568;DHT22;52211;50.154;8.682;2023-04-03T17:27:18;11.50;39.90
65568;DHT22;52211;50.154;8.682;2023-04-03T17:29:48;11.50;40.10
65568;DHT22;52211;50.154;8.682;2023-04-03T17:32:17;11.40;40.20
65568;DHT22;52211;50.154;8.682;2023-04-03T17:34:48;11.30;40.10
65568;DHT22;52211;50.154;8.682;2023-04-03T17:37:22;11.20;40.20